sensor_id;sensor_type;location;lat;lon;timestamp;temperature;humidity
51739;DHT22;37815;52.692;6.226;2024-02-26T00:03:00;8.60;99.90
51739;DHT22;37815;52.692;6.226;2024-02-26T00:08:01;8.60;99.90
51739;DHT22;37815;52.692;6.226;2024-02-26T00:13:01;8.70;99.90
51739;DHT22;37815;52.692;6.226;2024-02-26T00:18:02;8.60;99.90
51739;DHT22;37815;52.692;6.226;2024-02-26T00:23:03;8.60;99.90
51739;DHT22;37815;52.692;6.226;2024-02-26T00:28:04;8.60;99.90
51739;DHT22;37815;52.692;6.226;2024-02-26T00:33:05;8.60;99.90
51739;DHT22;37815;52.692;6.226;2024-02-26T00:38:06;8.60;99.90
51739;DHT22;37815;52.692;6.226;2024-02-26T00:43:07;8.60;99.90
51739;DHT22;37815;52.692;6.226;2024-02-26T00:48:07;8.50;99.90
51739;DHT22;37815;52.692;6.226;2024-02-26T00:53:08;8.50;99.90
51739;DHT22;37815;52.692;6.226;2024-02-26T00:58:09;8.50;99.90
51739;DHT22;37815;52.692;6.226;2024-02-26T01:03:10;8.50;99.90
51739;DHT22;37815;52.692;6.226;2024-02-26T01:08:11;8.50;99.90
51739;DHT22;37815;52.692;6.226;2024-02-26T01:13:11;8.50;99.90
51739;DHT22;37815;52.692;6.226;2024-02-26T01:18:12;8.50;99.90
51739;DHT22;37815;52.692;6.226;2024-02-26T01:23:13;8.50;99.90
51739;DHT22;37815;52.692;6.226;2024-02-26T01:28:13;8.50;99.90
51739;DHT22;37815;52.692;6.226;2024-02-26T01:33:14;8.50;99.90
51739;DHT22;37815;52.692;6.226;2024-02-26T01:38:15;8.40;99.90
51739;DHT22;37815;52.692;6.226;2024-02-26T01:43:15;8.40;99.90
51739;DHT22;37815;52.692;6.226;2024-02-26T01:48:16;8.40;99.90
51739;DHT22;37815;52.692;6.226;2024-02-26T01:53:17;8.40;99.90
51739;DHT22;37815;52.692;6.226;2024-02-26T01:58:18;8.40;99.90
51739;DHT22;37815;52.692;6.226;2024-02-26T02:03:19;8.40;99.90
51739;DHT22;37815;52.692;6.226;2024-02-26T02:08:20;8.40;99.90
51739;DHT22;37815;52.692;6.226;2024-02-26T02:13:22;8.40;99.90
51739;DHT22;37815;52.692;6.226;2024-02-26T02:18:22;8.30;99.90
51739;DHT22;37815;52.692;6.226;2024-02-26T02:23:23;8.30;99.90
51739;DHT22;37815;52.692;6.226;2024-02-26T02:28:26;8.30;99.90
51739;DHT22;37815;52.692;6.226;2024-02-26T02:33:27;8.30;99.90
51739;DHT22;37815;52.692;6.226;2024-02-26T02:38:28;8.30;99.90
51739;DHT22;37815;52.692;6.226;2024-02-26T02:43:30;8.30;99.90
51739;DHT22;37815;52.692;6.226;2024-02-26T02:48:30;8.30;99.90
51739;DHT22;37815;52.692;6.226;2024-02-26T02:53:31;8.30;99.90
51739;DHT22;37815;52.692;6.226;2024-02-26T02:58:32;8.20;99.90
51739;DHT22;37815;52.692;6.226;2024-02-26T03:03:32;8.30;99.90
51739;DHT22;37815;52.692;6.226;2024-02-26T03:08:33;8.20;99.90
51739;DHT22;37815;52.692;6.226;2024-02-26T03:13:37;8.20;99.90
51739;DHT22;37815;52.692;6.226;2024-02-26T03:18:40;8.20;99.90
51739;DHT22;37815;52.692;6.226;2024-02-26T03:23:41;8.20;99.90
51739;DHT22;37815;52.692;6.226;2024-02-26T03:28:41;8.20;99.90
51739;DHT22;37815;52.692;6.226;2024-02-26T03:33:42;8.20;99.90
51739;DHT22;37815;52.692;6.226;2024-02-26T03:38:43;8.20;99.90
51739;DHT22;37815;52.692;6.226;2024-02-26T03:43:43;8.20;99.90
51739;DHT22;37815;52.692;6.226;2024-02-26T03:48:45;8.20;99.90
51739;DHT22;37815;52.692;6.226;2024-02-26T03:53:46;8.10;99.90
51739;DHT22;37815;52.692;6.226;2024-02-26T03:58:46;8.10;99.90
51739;DHT22;37815;52.692;6.226;2024-02-26T04:03:47;8.10;99.90
51739;DHT22;37815;52.692;6.226;2024-02-26T04:08:47;8.10;99.90
51739;DHT22;37815;52.692;6.226;2024-02-26T04:13:48;8.10;99.90
51739;DHT22;37815;52.692;6.226;2024-02-26T04:18:52;8.10;99.90
51739;DHT22;37815;52.692;6.226;2024-02-26T04:23:53;8.10;99.90
51739;DHT22;37815;52.692;6.226;2024-02-26T04:28:56;8.10;99.90
51739;DHT22;37815;52.692;6.226;2024-02-26T04:33:56;8.10;99.90
51739;DHT22;37815;52.692;6.226;2024-02-26T04:38:57;8.10;99.90
51739;DHT22;37815;52.692;6.226;2024-02-26T04:43:57;8.10;99.90
51739;DHT22;37815;52.692;6.226;2024-02-26T04:48:58;8.10;99.90
51739;DHT22;37815;52.692;6.226;2024-02-26T04:53:58;8.10;99.90
51739;DHT22;37815;52.692;6.226;2024-02-26T04:58:59;8.10;99.90
51739;DHT22;37815;52.692;6.226;2024-02-26T05:04:00;8.10;99.90
51739;DHT22;37815;52.692;6.226;2024-02-26T05:09:00;8.00;99.90
51739;DHT22;37815;52.692;6.226;2024-02-26T05:14:01;8.10;99.90
51739;DHT22;37815;52.692;6.226;2024-02-26T05:19:01;8.00;99.90
51739;DHT22;37815;52.692;6.226;2024-02-26T05:24:03;8.00;99.90
51739;DHT22;37815;52.692;6.226;2024-02-26T05:29:04;8.00;99.90
51739;DHT22;37815;52.692;6.226;2024-02-26T05:34:04;8.10;99.90
51739;DHT22;37815;52.692;6.226;2024-02-26T05:39:05;8.50;99.90
51739;DHT22;37815;52.692;6.226;2024-02-26T05:44:05;8.00;99.90
51739;DHT22;37815;52.692;6.226;2024-02-26T05:49:06;8.00;99.90
51739;DHT22;37815;52.692;6.226;2024-02-26T05:54:07;8.00;99.90
51739;DHT22;37815;52.692;6.226;2024-02-26T05:59:08;8.00;99.90
51739;DHT22;37815;52.692;6.226;2024-02-26T06:04:09;8.00;99.90
51739;DHT22;37815;52.692;6.226;2024-02-26T06:09:09;8.00;99.90
51739;DHT22;37815;52.692;6.226;2024-02-26T06:14:11;8.00;99.90
51739;DHT22;37815;52.692;6.226;2024-02-26T06:19:13;8.00;99.90
51739;DHT22;37815;52.692;6.226;2024-02-26T06:24:14;8.00;99.90
51739;DHT22;37815;52.692;6.226;2024-02-26T06:29:14;8.00;99.90
51739;DHT22;37815;52.692;6.226;2024-02-26T06:34:15;8.00;99.90
51739;DHT22;37815;52.692;6.226;2024-02-26T06:39:16;8.00;99.90
51739;DHT22;37815;52.692;6.226;2024-02-26T06:44:16;8.00;99.90
51739;DHT22;37815;52.692;6.226;2024-02-26T06:49:17;8.00;99.90
51739;DHT22;37815;52.692;6.226;2024-02-26T06:54:17;8.00;99.90
51739;DHT22;37815;52.692;6.226;2024-02-26T06:59:18;8.00;99.90
51739;DHT22;37815;52.692;6.226;2024-02-26T07:04:20;8.00;99.90
51739;DHT22;37815;52.692;6.226;2024-02-26T07:09:20;8.00;99.90
51739;DHT22;37815;52.692;6.226;2024-02-26T07:14:21;8.00;99.90
51739;DHT22;37815;52.692;6.226;2024-02-26T07:19:22;8.00;99.90
51739;DHT22;37815;52.692;6.226;2024-02-26T07:24:22;8.00;99.90
51739;DHT22;37815;52.692;6.226;2024-02-26T07:29:23;7.90;99.90
51739;DHT22;37815;52.692;6.226;2024-02-26T07:34:24;8.00;99.90
51739;DHT22;37815;52.692;6.226;2024-02-26T07:39:27;8.00;99.90
51739;DHT22;37815;52.692;6.226;2024-02-26T07:44:28;7.90;99.90
51739;DHT22;37815;52.692;6.226;2024-02-26T07:49:29;8.00;99.90
51739;DHT22;37815;52.692;6.226;2024-02-26T07:54:30;7.90;99.90
51739;DHT22;37815;52.692;6.226;2024-02-26T07:59:31;8.00;99.90
51739;DHT22;37815;52.692;6.226;2024-02-26T08:04:31;8.00;99.90
51739;DHT22;37815;52.692;6.226;2024-02-26T08:09:32;8.00;99.90
51739;DHT22;37815;52.692;6.226;2024-02-26T08:14:33;8.00;99.90
51739;DHT22;37815;52.692;6.226;2024-02-26T08:19:34;8.00;99.90
51739;DHT22;37815;52.692;6.226;2024-02-26T08:24:36;8.00;99.90
51739;DHT22;37815;52.692;6.226;2024-02-26T08:29:36;8.00;99.90
51739;DHT22;37815;52.692;6.226;2024-02-26T08:34:37;8.00;99.90
51739;DHT22;37815;52.692;6.226;2024-02-26T08:39:37;8.00;99.90
51739;DHT22;37815;52.692;6.226;2024-02-26T08:44:39;8.00;99.90
51739;DHT22;37815;52.692;6.226;2024-02-26T08:49:44;8.00;99.90
51739;DHT22;37815;52.692;6.226;2024-02-26T08:54:45;8.00;99.90
51739;DHT22;37815;52.692;6.226;2024-02-26T08:59:46;8.10;99.90
51739;DHT22;37815;52.692;6.226;2024-02-26T09:04:47;8.10;99.90
51739;DHT22;37815;52.692;6.226;2024-02-26T09:09:47;8.10;99.90
51739;DHT22;37815;52.692;6.226;2024-02-26T09:14:48;8.10;99.90
51739;DHT22;37815;52.692;6.226;2024-02-26T09:19:48;8.10;99.90
51739;DHT22;37815;52.692;6.226;2024-02-26T09:24:49;8.10;99.90
51739;DHT22;37815;52.692;6.226;2024-02-26T09:29:51;8.40;99.90
51739;DHT22;37815;52.692;6.226;2024-02-26T09:34:52;8.10;99.90
51739;DHT22;37815;52.692;6.226;2024-02-26T09:39:52;8.20;99.90
51739;DHT22;37815;52.692;6.226;2024-02-26T09:44:56;8.30;99.90
51739;DHT22;37815;52.692;6.226;2024-02-26T09:49:59;8.40;99.90
51739;DHT22;37815;52.692;6.226;2024-02-26T09:55:00;8.40;99.90
51739;DHT22;37815;52.692;6.226;2024-02-26T10:00:02;8.30;99.90
51739;DHT22;37815;52.692;6.226;2024-02-26T10:05:07;8.30;99.90
51739;DHT22;37815;52.692;6.226;2024-02-26T10:10:09;8.30;99.90
51739;DHT22;37815;52.692;6.226;2024-02-26T10:15:10;8.00;99.90
51739;DHT22;37815;52.692;6.226;2024-02-26T10:20:15;7.90;99.90
51739;DHT22;37815;52.692;6.226;2024-02-26T10:25:16;7.90;99.90
51739;DHT22;37815;52.692;6.226;2024-02-26T10:30:21;8.00;99.90
51739;DHT22;37815;52.692;6.226;2024-02-26T10:35:22;8.00;99.90
51739;DHT22;37815;52.692;6.226;2024-02-26T10:40:23;8.10;99.90
51739;DHT22;37815;52.692;6.226;2024-02-26T10:45:24;8.20;99.90
51739;DHT22;37815;52.692;6.226;2024-02-26T10:50:25;8.30;99.90
51739;DHT22;37815;52.692;6.226;2024-02-26T10:55:26;8.30;99.90
51739;DHT22;37815;52.692;6.226;2024-02-26T11:00:27;8.30;99.90
51739;DHT22;37815;52.692;6.226;2024-02-26T11:05:30;8.30;99.90
51739;DHT22;37815;52.692;6.226;2024-02-26T11:10:31;8.30;99.90
51739;DHT22;37815;52.692;6.226;2024-02-26T11:15:32;8.30;99.90
51739;DHT22;37815;52.692;6.226;2024-02-26T11:20:34;8.30;99.90
51739;DHT22;37815;52.692;6.226;2024-02-26T11:25:38;8.30;99.90
51739;DHT22;37815;52.692;6.226;2024-02-26T11:30:45;8.00;99.90
51739;DHT22;37815;52.692;6.226;2024-02-26T11:35:47;7.40;99.90
51739;DHT22;37815;52.692;6.226;2024-02-26T11:40:48;7.10;99.90
51739;DHT22;37815;52.692;6.226;2024-02-26T11:45:49;6.90;99.90
51739;DHT22;37815;52.692;6.226;2024-02-26T11:50:55;6.70;99.90
51739;DHT22;37815;52.692;6.226;2024-02-26T11:56:34;7.00;99.90
51739;DHT22;37815;52.692;6.226;2024-02-26T12:06:53;7.60;99.90
51739;DHT22;37815;52.692;6.226;2024-02-26T12:11:55;7.80;99.90
51739;DHT22;37815;52.692;6.226;2024-02-26T12:16:56;7.90;99.90
51739;DHT22;37815;52.692;6.226;2024-02-26T12:21:58;8.00;99.90
51739;DHT22;37815;52.692;6.226;2024-02-26T12:26:59;8.00;99.90
51739;DHT22;37815;52.692;6.226;2024-02-26T12:32:00;8.10;99.90
51739;DHT22;37815;52.692;6.226;2024-02-26T12:37:01;8.20;99.90
51739;DHT22;37815;52.692;6.226;2024-02-26T12:42:02;8.30;99.90
51739;DHT22;37815;52.692;6.226;2024-02-26T12:47:04;8.30;99.90
51739;DHT22;37815;52.692;6.226;2024-02-26T12:52:05;8.40;99.90
51739;DHT22;37815;52.692;6.226;2024-02-26T12:57:06;8.40;99.90
51739;DHT22;37815;52.692;6.226;2024-02-26T13:02:08;8.40;99.90
51739;DHT22;37815;52.692;6.226;2024-02-26T13:07:09;8.50;99.90
51739;DHT22;37815;52.692;6.226;2024-02-26T13:12:10;8.50;99.90
51739;DHT22;37815;52.692;6.226;2024-02-26T13:17:12;8.50;99.90
51739;DHT22;37815;52.692;6.226;2024-02-26T13:22:12;8.50;99.90
51739;DHT22;37815;52.692;6.226;2024-02-26T13:27:21;8.60;99.90
51739;DHT22;37815;52.692;6.226;2024-02-26T13:32:22;8.60;99.90
51739;DHT22;37815;52.692;6.226;2024-02-26T13:37:22;8.60;99.90
51739;DHT22;37815;52.692;6.226;2024-02-26T13:42:23;8.60;99.90
51739;DHT22;37815;52.692;6.226;2024-02-26T13:47:23;8.60;99.90
51739;DHT22;37815;52.692;6.226;2024-02-26T13:52:24;8.60;99.90
51739;DHT22;37815;52.692;6.226;2024-02-26T13:57:26;8.70;99.90
51739;DHT22;37815;52.692;6.226;2024-02-26T14:02:27;8.60;99.90
51739;DHT22;37815;52.692;6.226;2024-02-26T14:07:27;8.60;99.90
51739;DHT22;37815;52.692;6.226;2024-02-26T14:12:28;8.70;99.90
51739;DHT22;37815;52.692;6.226;2024-02-26T14:17:28;8.70;99.90
51739;DHT22;37815;52.692;6.226;2024-02-26T14:22:29;8.70;99.90
51739;DHT22;37815;52.692;6.226;2024-02-26T14:27:31;8.70;99.90
51739;DHT22;37815;52.692;6.226;2024-02-26T14:32:31;8.70;99.90
51739;DHT22;37815;52.692;6.226;2024-02-26T14:37:36;8.70;99.90
51739;DHT22;37815;52.692;6.226;2024-02-26T14:42:37;8.70;99.90
51739;DHT22;37815;52.692;6.226;2024-02-26T14:47:38;8.70;99.90
51739;DHT22;37815;52.692;6.226;2024-02-26T14:52:40;8.70;99.90
51739;DHT22;37815;52.692;6.226;2024-02-26T14:57:40;8.70;99.90
51739;DHT22;37815;52.692;6.226;2024-02-26T15:02:41;8.70;99.90
51739;DHT22;37815;52.692;6.226;2024-02-26T15:07:42;8.70;99.90
51739;DHT22;37815;52.692;6.226;2024-02-26T15:12:43;8.90;99.90
51739;DHT22;37815;52.692;6.226;2024-02-26T15:17:43;8.70;99.90
51739;DHT22;37815;52.692;6.226;2024-02-26T15:22:44;8.30;99.90
51739;DHT22;37815;52.692;6.226;2024-02-26T15:27:44;8.80;99.90
51739;DHT22;37815;52.692;6.226;2024-02-26T15:32:45;8.70;99.90
51739;DHT22;37815;52.692;6.226;2024-02-26T15:37:46;8.80;99.90
51739;DHT22;37815;52.692;6.226;2024-02-26T15:42:47;8.80;99.90
51739;DHT22;37815;52.692;6.226;2024-02-26T15:47:47;8.80;99.90
51739;DHT22;37815;52.692;6.226;2024-02-26T15:52:48;8.80;99.90
51739;DHT22;37815;52.692;6.226;2024-02-26T15:57:49;8.70;99.90
51739;DHT22;37815;52.692;6.226;2024-02-26T16:02:49;8.70;99.90
51739;DHT22;37815;52.692;6.226;2024-02-26T16:07:55;8.60;99.90
51739;DHT22;37815;52.692;6.226;2024-02-26T16:13:00;8.60;99.90
51739;DHT22;37815;52.692;6.226;2024-02-26T16:18:01;8.50;99.90
51739;DHT22;37815;52.692;6.226;2024-02-26T16:23:02;8.50;99.90
51739;DHT22;37815;52.692;6.226;2024-02-26T16:28:06;8.50;99.90
51739;DHT22;37815;52.692;6.226;2024-02-26T16:33:07;8.40;99.90
51739;DHT22;37815;52.692;6.226;2024-02-26T16:38:07;8.40;99.90
51739;DHT22;37815;52.692;6.226;2024-02-26T16:43:08;8.40;99.90
51739;DHT22;37815;52.692;6.226;2024-02-26T16:48:09;8.40;99.90
51739;DHT22;37815;52.692;6.226;2024-02-26T16:53:09;8.40;99.90
51739;DHT22;37815;52.692;6.226;2024-02-26T16:58:10;8.50;99.90
51739;DHT22;37815;52.692;6.226;2024-02-26T17:03:10;8.60;99.90
51739;DHT22;37815;52.692;6.226;2024-02-26T17:08:11;8.60;99.90
51739;DHT22;37815;52.692;6.226;2024-02-26T17:13:12;8.70;99.90
51739;DHT22;37815;52.692;6.226;2024-02-26T17:18:13;8.70;99.90
51739;DHT22;37815;52.692;6.226;2024-02-26T17:23:14;8.80;99.90
51739;DHT22;37815;52.692;6.226;2024-02-26T17:28:15;8.70;99.90
51739;DHT22;37815;52.692;6.226;2024-02-26T17:33:15;8.20;99.90
51739;DHT22;37815;52.692;6.226;2024-02-26T17:38:16;8.00;99.90
51739;DHT22;37815;52.692;6.226;2024-02-26T17:43:17;8.00;99.90
51739;DHT22;37815;52.692;6.226;2024-02-26T17:48:18;8.10;99.90
51739;DHT22;37815;52.692;6.226;2024-02-26T17:53:20;8.30;99.90
51739;DHT22;37815;52.692;6.226;2024-02-26T17:58:22;8.30;99.90
51739;DHT22;37815;52.692;6.226;2024-02-26T18:03:23;8.30;99.90
51739;DHT22;37815;52.692;6.226;2024-02-26T18:08:23;8.40;99.90
51739;DHT22;37815;52.692;6.226;2024-02-26T18:13:24;8.40;99.90
51739;DHT22;37815;52.692;6.226;2024-02-26T18:18:24;8.40;99.90
51739;DHT22;37815;52.692;6.226;2024-02-26T18:23:29;8.40;99.90
51739;DHT22;37815;52.692;6.226;2024-02-26T18:28:30;8.40;99.90
51739;DHT22;37815;52.692;6.226;2024-02-26T18:33:30;8.50;99.90
51739;DHT22;37815;52.692;6.226;2024-02-26T18:38:31;8.40;99.90
51739;DHT22;37815;52.692;6.226;2024-02-26T18:43:31;8.40;99.90
51739;DHT22;37815;52.692;6.226;2024-02-26T18:48:32;8.40;99.90
51739;DHT22;37815;52.692;6.226;2024-02-26T18:53:33;8.40;99.90
51739;DHT22;37815;52.692;6.226;2024-02-26T18:58:34;8.40;99.90
51739;DHT22;37815;52.692;6.226;2024-02-26T19:03:34;8.40;99.90
51739;DHT22;37815;52.692;6.226;2024-02-26T19:08:35;8.40;99.90
51739;DHT22;37815;52.692;6.226;2024-02-26T19:13:37;8.30;99.90
51739;DHT22;37815;52.692;6.226;2024-02-26T19:18:39;8.30;99.90
51739;DHT22;37815;52.692;6.226;2024-02-26T19:23:40;8.30;99.90
51739;DHT22;37815;52.692;6.226;2024-02-26T19:28:40;8.30;99.90
51739;DHT22;37815;52.692;6.226;2024-02-26T19:33:45;8.30;99.90
51739;DHT22;37815;52.692;6.226;2024-02-26T19:38:47;8.30;99.90
51739;DHT22;37815;52.692;6.226;2024-02-26T19:43:47;8.30;99.90
51739;DHT22;37815;52.692;6.226;2024-02-26T19:48:48;8.30;99.90
51739;DHT22;37815;52.692;6.226;2024-02-26T19:53:49;8.20;99.90
51739;DHT22;37815;52.692;6.226;2024-02-26T19:58:50;8.20;99.90
51739;DHT22;37815;52.692;6.226;2024-02-26T20:03:50;8.20;99.90
51739;DHT22;37815;52.692;6.226;2024-02-26T20:08:51;8.20;99.90
51739;DHT22;37815;52.692;6.226;2024-02-26T20:13:52;8.20;99.90
51739;DHT22;37815;52.692;6.226;2024-02-26T20:18:52;8.20;99.90
51739;DHT22;37815;52.692;6.226;2024-02-26T20:23:53;8.20;99.90
51739;DHT22;37815;52.692;6.226;2024-02-26T20:28:54;8.20;99.90
51739;DHT22;37815;52.692;6.226;2024-02-26T20:33:55;8.20;99.90
51739;DHT22;37815;52.692;6.226;2024-02-26T20:38:56;8.20;99.90
51739;DHT22;37815;52.692;6.226;2024-02-26T20:43:56;8.10;99.90
51739;DHT22;37815;52.692;6.226;2024-02-26T20:48:58;8.10;99.90
51739;DHT22;37815;52.692;6.226;2024-02-26T20:53:58;8.10;99.90
51739;DHT22;37815;52.692;6.226;2024-02-26T20:59:00;8.10;99.90
51739;DHT22;37815;52.692;6.226;2024-02-26T21:04:00;8.10;99.90
51739;DHT22;37815;52.692;6.226;2024-02-26T21:09:01;8.10;99.90
51739;DHT22;37815;52.692;6.226;2024-02-26T21:14:04;8.10;99.90
51739;DHT22;37815;52.692;6.226;2024-02-26T21:19:04;8.10;99.90
51739;DHT22;37815;52.692;6.226;2024-02-26T21:24:06;8.10;99.90
51739;DHT22;37815;52.692;6.226;2024-02-26T21:29:06;8.00;99.90
51739;DHT22;37815;52.692;6.226;2024-02-26T21:34:07;8.00;99.90
51739;DHT22;37815;52.692;6.226;2024-02-26T21:39:08;8.10;99.90
51739;DHT22;37815;52.692;6.226;2024-02-26T21:44:09;8.00;99.90
51739;DHT22;37815;52.692;6.226;2024-02-26T21:49:10;8.00;99.90
51739;DHT22;37815;52.692;6.226;2024-02-26T21:54:11;8.00;99.90
51739;DHT22;37815;52.692;6.226;2024-02-26T21:59:15;8.00;99.90
51739;DHT22;37815;52.692;6.226;2024-02-26T22:04:15;8.00;99.90
51739;DHT22;37815;52.692;6.226;2024-02-26T22:09:16;8.00;99.90
51739;DHT22;37815;52.692;6.226;2024-02-26T22:14:17;8.00;99.90
51739;DHT22;37815;52.692;6.226;2024-02-26T22:19:17;8.00;99.90
51739;DHT22;37815;52.692;6.226;2024-02-26T22:24:18;8.00;99.90
51739;DHT22;37815;52.692;6.226;2024-02-26T22:29:19;8.00;99.90
51739;DHT22;37815;52.692;6.226;2024-02-26T22:34:19;7.90;99.90
51739;DHT22;37815;52.692;6.226;2024-02-26T22:39:20;8.00;99.90
51739;DHT22;37815;52.692;6.226;2024-02-26T22:44:22;7.90;99.90
51739;DHT22;37815;52.692;6.226;2024-02-26T22:49:23;7.90;99.90
51739;DHT22;37815;52.692;6.226;2024-02-26T22:54:24;7.90;99.90
51739;DHT22;37815;52.692;6.226;2024-02-26T22:59:24;7.90;99.90
51739;DHT22;37815;52.692;6.226;2024-02-26T23:04:25;7.90;99.90
51739;DHT22;37815;52.692;6.226;2024-02-26T23:09:26;7.90;99.90
51739;DHT22;37815;52.692;6.226;2024-02-26T23:14:26;7.90;99.90
51739;DHT22;37815;52.692;6.226;2024-02-26T23:19:27;7.80;99.90
51739;DHT22;37815;52.692;6.226;2024-02-26T23:24:30;7.80;99.90
51739;DHT22;37815;52.692;6.226;2024-02-26T23:29:31;7.80;99.90
51739;DHT22;37815;52.692;6.226;2024-02-26T23:34:31;7.80;99.90
51739;DHT22;37815;52.692;6.226;2024-02-26T23:39:32;7.80;99.90
51739;DHT22;37815;52.692;6.226;2024-02-26T23:44:33;7.80;99.90
51739;DHT22;37815;52.692;6.226;2024-02-26T23:49:34;7.80;99.90
51739;DHT22;37815;52.692;6.226;2024-02-26T23:54:35;7.80;99.90
51739;DHT22;37815;52.692;6.226;2024-02-26T23:59:35;7.80;99.90
